createdAt,value
2023-03-31T00:00:52.617Z,88.43
2023-03-31T00:01:52.749Z,88.64
2023-03-31T00:02:52.521Z,88.74
2023-03-31T00:03:52.567Z,88.78
2023-03-31T00:04:52.638Z,88.88
2023-03-31T00:08:10.717Z,89.09
2023-03-31T00:09:11.903Z,88.98
2023-03-31T00:11:11.530Z,88.88
2023-03-31T00:12:11.448Z,88.98
2023-03-31T00:13:11.427Z,89.09
2023-03-31T00:14:11.317Z,89.09
2023-03-31T00:15:11.285Z,89.29
2023-03-31T00:16:11.317Z,89.39
2023-03-31T00:17:11.128Z,89.29
2023-03-31T00:18:11.092Z,89.39
2023-03-31T00:19:11.112Z,89.29
2023-03-31T00:20:10.965Z,89.39
2023-03-31T00:21:10.906Z,89.39
2023-03-31T00:22:10.876Z,89.39
2023-03-31T00:23:11.292Z,89.50
2023-03-31T00:24:10.716Z,89.70
2023-03-31T00:27:29.146Z,89.29
2023-03-31T00:28:30.040Z,89.29
2023-03-31T00:29:29.963Z,89.39
2023-03-31T00:30:29.907Z,89.50
2023-03-31T00:31:29.925Z,89.29
2023-03-31T00:32:30.109Z,89.29
2023-03-31T00:33:29.736Z,89.29
2023-03-31T00:34:29.668Z,89.29
2023-03-31T00:35:29.625Z,89.25
2023-03-31T00:36:29.529Z,89.25
2023-03-31T00:37:29.537Z,89.15
2023-03-31T00:38:29.488Z,89.15
2023-03-31T00:39:29.336Z,89.04
2023-03-31T00:40:29.281Z,89.04
2023-03-31T00:41:29.252Z,89.04
2023-03-31T00:42:29.177Z,89.04
2023-03-31T00:43:29.125Z,88.84
2023-03-31T00:44:30.254Z,88.74
2023-03-31T00:45:29.029Z,88.74
2023-03-31T00:46:28.978Z,88.74
2023-03-31T00:47:28.937Z,88.53
2023-03-31T00:48:28.826Z,88.74
2023-03-31T00:49:28.737Z,88.74
2023-03-31T00:50:28.785Z,88.53
2023-03-31T00:51:28.612Z,88.64
2023-03-31T00:52:28.529Z,88.74
2023-03-31T00:53:28.482Z,88.94
2023-03-31T00:54:28.440Z,88.94
2023-03-31T00:55:28.408Z,89.19
2023-03-31T00:56:28.295Z,89.19
2023-03-31T00:57:28.360Z,89.19
2023-03-31T00:58:28.151Z,89.29
2023-03-31T00:59:28.140Z,89.19
2023-03-31T01:00:28.053Z,89.29
2023-03-31T01:01:28.053Z,89.29
2023-03-31T01:02:27.961Z,89.29
2023-03-31T01:03:27.885Z,89.39
2023-03-31T01:04:27.777Z,89.29
2023-03-31T01:05:27.716Z,89.19
2023-03-31T01:06:27.685Z,89.19
2023-03-31T01:07:27.641Z,89.15
2023-03-31T01:08:27.618Z,89.04
2023-03-31T01:09:27.487Z,89.04
2023-03-31T01:10:27.426Z,89.04
2023-03-31T01:11:27.370Z,89.04
2023-03-31T01:12:27.337Z,89.04
2023-03-31T01:13:27.264Z,89.04
2023-03-31T01:14:27.161Z,89.04
2023-03-31T01:15:27.113Z,89.15
2023-03-31T01:16:27.064Z,89.04
2023-03-31T01:17:27.081Z,88.94
2023-03-31T01:18:26.985Z,88.84
2023-03-31T01:19:26.844Z,88.84
2023-03-31T01:20:26.831Z,88.84
2023-03-31T01:21:26.743Z,88.84
2023-03-31T01:22:26.707Z,88.94
2023-03-31T01:23:26.610Z,88.94
2023-03-31T01:24:26.540Z,89.04
2023-03-31T01:25:26.463Z,88.84
2023-03-31T01:26:26.465Z,88.98
2023-03-31T01:27:26.387Z,89.04
2023-03-31T01:28:26.379Z,89.09
2023-03-31T01:29:26.300Z,89.19
2023-03-31T01:30:26.226Z,89.29
2023-03-31T01:31:26.138Z,89.29
2023-03-31T01:32:26.170Z,89.39
2023-03-31T01:33:25.965Z,89.60
2023-03-31T01:34:25.957Z,89.60
2023-03-31T01:35:25.924Z,89.50
2023-03-31T01:36:25.833Z,89.50
2023-03-31T01:37:25.767Z,89.60
2023-03-31T01:38:25.769Z,89.81
2023-03-31T01:39:25.639Z,89.81
2023-03-31T01:40:25.526Z,89.90
2023-03-31T01:41:25.495Z,89.90
2023-03-31T01:42:25.454Z,89.90
2023-03-31T01:43:25.390Z,89.90
2023-03-31T01:44:25.324Z,89.90
2023-03-31T01:45:25.267Z,90.01
2023-03-31T01:46:25.203Z,89.90
2023-03-31T01:47:25.174Z,89.81
2023-03-31T01:48:25.060Z,89.60
2023-03-31T01:49:24.971Z,89.50
2023-03-31T01:50:24.940Z,89.50
2023-03-31T01:51:24.859Z,89.39
2023-03-31T01:52:24.860Z,89.19
2023-03-31T01:53:24.800Z,88.98
2023-03-31T01:54:24.650Z,89.09
2023-03-31T01:55:24.624Z,89.09
2023-03-31T01:56:24.552Z,89.19
2023-03-31T01:57:24.614Z,89.19
2023-03-31T01:58:24.424Z,89.19
2023-03-31T01:59:24.396Z,89.19
2023-03-31T02:00:24.309Z,89.09
2023-03-31T02:01:24.338Z,89.19
2023-03-31T02:02:24.295Z,89.19
2023-03-31T02:03:24.350Z,89.09
2023-03-31T02:04:24.081Z,89.19
2023-03-31T02:05:23.999Z,89.09
2023-03-31T02:06:24.943Z,89.09
2023-03-31T02:07:23.870Z,89.09
2023-03-31T02:08:23.858Z,88.88
2023-03-31T02:09:23.768Z,88.78
2023-03-31T02:10:23.696Z,88.88
2023-03-31T02:11:23.625Z,88.78
2023-03-31T02:12:23.552Z,88.78
2023-03-31T02:13:23.525Z,88.68
2023-03-31T02:14:24.646Z,88.78
2023-03-31T02:15:23.378Z,88.78
2023-03-31T02:16:23.414Z,88.68
2023-03-31T02:17:23.316Z,88.68
2023-03-31T02:18:23.203Z,88.78
2023-03-31T02:19:23.117Z,88.68
2023-03-31T02:20:23.068Z,88.78
2023-03-31T02:21:23.017Z,88.78
2023-03-31T02:22:22.905Z,88.78
2023-03-31T02:23:22.868Z,88.68
2023-03-31T02:24:22.798Z,88.78
2023-03-31T02:25:22.745Z,88.68
2023-03-31T02:26:22.734Z,88.68
2023-03-31T02:27:22.694Z,88.68
2023-03-31T02:28:22.558Z,88.53
2023-03-31T02:29:22.481Z,88.43
2023-03-31T02:30:22.485Z,88.33
2023-03-31T02:31:22.433Z,88.43
2023-03-31T02:32:22.370Z,88.43
2023-03-31T02:33:22.284Z,88.23
2023-03-31T02:34:22.173Z,88.33
2023-03-31T02:35:22.104Z,88.23
2023-03-31T02:36:22.089Z,88.12
2023-03-31T02:37:21.964Z,88.23
2023-03-31T02:38:21.933Z,88.23
2023-03-31T02:39:21.844Z,88.12
2023-03-31T02:40:21.815Z,88.23
2023-03-31T02:41:21.740Z,88.12
2023-03-31T02:42:21.649Z,88.02
2023-03-31T02:43:21.713Z,88.23
2023-03-31T02:44:21.636Z,88.02
2023-03-31T02:45:21.516Z,88.12
2023-03-31T02:46:21.531Z,88.23
2023-03-31T02:47:21.465Z,88.23
2023-03-31T02:48:21.316Z,88.23
2023-03-31T02:49:21.271Z,88.12
2023-03-31T02:50:21.165Z,88.33
2023-03-31T02:51:21.122Z,88.23
2023-03-31T02:52:21.038Z,88.23
2023-03-31T02:53:21.042Z,88.33
2023-03-31T02:54:20.961Z,88.33
2023-03-31T02:55:20.894Z,88.43
2023-03-31T02:56:20.836Z,88.33
2023-03-31T02:57:20.904Z,88.23
2023-03-31T02:58:20.682Z,88.23
2023-03-31T02:59:20.645Z,88.23
2023-03-31T03:00:20.562Z,88.23
2023-03-31T03:01:20.561Z,88.12
2023-03-31T03:02:20.502Z,88.23
2023-03-31T03:03:20.421Z,88.64
2023-03-31T03:04:20.312Z,88.94
2023-03-31T03:05:20.361Z,89.25
2023-03-31T03:06:20.153Z,89.45
2023-03-31T03:07:20.118Z,89.76
2023-03-31T03:08:20.086Z,89.87
2023-03-31T03:09:19.981Z,90.17
2023-03-31T03:10:19.953Z,90.07
2023-03-31T03:11:19.856Z,90.28
2023-03-31T03:12:19.833Z,90.28
2023-03-31T03:13:19.766Z,90.48
2023-03-31T03:14:19.704Z,90.58
2023-03-31T03:15:19.622Z,90.79
2023-03-31T03:16:19.602Z,90.89
2023-03-31T03:17:19.505Z,91.30
2023-03-31T03:18:19.431Z,91.40
2023-03-31T03:19:19.371Z,91.44
2023-03-31T03:20:19.303Z,91.55
2023-03-31T03:21:19.244Z,91.55
2023-03-31T03:22:19.169Z,91.75
2023-03-31T03:23:19.124Z,91.96
2023-03-31T03:24:19.108Z,91.75
2023-03-31T03:25:19.016Z,91.75
2023-03-31T03:26:18.909Z,91.65
2023-03-31T03:27:18.895Z,91.75
2023-03-31T03:28:18.834Z,92.06
2023-03-31T03:29:18.764Z,92.06
2023-03-31T03:30:18.687Z,91.96
2023-03-31T03:31:18.720Z,92.16
2023-03-31T03:32:18.549Z,92.27
2023-03-31T03:33:18.554Z,92.36
2023-03-31T03:34:18.425Z,92.57
2023-03-31T03:35:18.399Z,92.57
2023-03-31T03:36:18.290Z,92.68
2023-03-31T03:37:18.271Z,92.68
2023-03-31T03:38:18.191Z,92.68
2023-03-31T03:39:18.120Z,92.88
2023-03-31T03:40:18.056Z,93.08
2023-03-31T03:41:18.058Z,93.29
2023-03-31T03:42:17.911Z,93.29
2023-03-31T03:43:17.869Z,93.19
2023-03-31T03:44:17.831Z,93.49
2023-03-31T03:45:17.758Z,93.39
2023-03-31T03:46:17.728Z,93.49
2023-03-31T03:47:17.644Z,93.80
2023-03-31T03:48:17.530Z,93.80
2023-03-31T03:49:17.550Z,93.80
2023-03-31T03:50:17.742Z,93.90
2023-03-31T03:51:17.369Z,94.11
2023-03-31T03:52:17.313Z,94.11
2023-03-31T03:53:17.278Z,94.32
2023-03-31T03:54:17.184Z,94.52
2023-03-31T03:55:17.156Z,94.56
2023-03-31T03:56:17.106Z,94.87
2023-03-31T03:57:17.053Z,94.87
2023-03-31T03:58:16.959Z,94.98
2023-03-31T03:59:16.833Z,95.07
2023-03-31T04:00:16.794Z,95.39
2023-03-31T04:01:16.729Z,95.49
2023-03-31T04:02:16.800Z,95.59
2023-03-31T04:03:16.739Z,95.49
2023-03-31T04:04:16.625Z,95.49
2023-03-31T04:05:16.539Z,95.34
2023-03-31T04:06:16.442Z,95.44
2023-03-31T04:07:16.386Z,95.69
2023-03-31T04:08:16.308Z,95.90
2023-03-31T04:09:16.308Z,96.00
2023-03-31T04:10:16.185Z,96.20
2023-03-31T04:11:18.507Z,96.31
2023-03-31T04:12:16.112Z,96.31
2023-03-31T04:13:15.984Z,96.31
2023-03-31T04:14:15.960Z,96.51
2023-03-31T04:15:15.889Z,96.51
2023-03-31T04:16:15.866Z,96.31
2023-03-31T04:17:15.801Z,96.20
2023-03-31T04:18:15.742Z,96.20
2023-03-31T04:19:15.942Z,96.20
2023-03-31T04:20:15.564Z,96.20
2023-03-31T04:21:15.472Z,96.41
2023-03-31T04:22:15.462Z,96.41
2023-03-31T04:23:15.389Z,96.41
2023-03-31T04:24:15.337Z,96.62
2023-03-31T04:25:15.231Z,96.51
2023-03-31T04:26:15.193Z,96.51
2023-03-31T04:27:15.114Z,96.31
2023-03-31T04:28:15.072Z,96.16
2023-03-31T04:29:15.003Z,96.16
2023-03-31T04:30:14.975Z,96.16
2023-03-31T04:31:14.940Z,96.16
2023-03-31T04:32:14.905Z,96.16
2023-03-31T04:33:14.756Z,96.06
2023-03-31T04:34:14.699Z,96.16
2023-03-31T04:35:14.539Z,96.16
2023-03-31T04:36:14.650Z,96.06
2023-03-31T04:37:14.419Z,96.16
2023-03-31T04:38:14.440Z,96.06
2023-03-31T04:39:14.324Z,95.75
2023-03-31T04:40:14.273Z,95.44
2023-03-31T04:41:14.224Z,95.34
2023-03-31T04:42:14.146Z,95.34
2023-03-31T04:43:14.050Z,95.24
2023-03-31T04:44:14.013Z,95.14
2023-03-31T04:45:13.930Z,95.14
2023-03-31T04:46:13.861Z,94.93
2023-03-31T04:47:13.810Z,94.93
2023-03-31T04:48:13.726Z,95.14
2023-03-31T04:49:13.683Z,95.24
2023-03-31T04:50:16.776Z,95.14
2023-03-31T04:51:13.548Z,95.34
2023-03-31T04:52:13.461Z,95.44
2023-03-31T04:53:13.419Z,95.44
2023-03-31T04:54:13.386Z,95.44
2023-03-31T04:55:13.311Z,95.44
2023-03-31T04:58:31.578Z,95.24
2023-03-31T04:59:32.523Z,95.03
2023-03-31T05:00:32.488Z,94.83
2023-03-31T05:01:32.434Z,94.62
2023-03-31T05:02:32.390Z,94.58
2023-03-31T05:03:32.421Z,94.48
2023-03-31T05:04:32.224Z,94.58
2023-03-31T05:05:32.161Z,94.37
2023-03-31T05:06:32.125Z,94.48
2023-03-31T05:07:32.064Z,94.48
2023-03-31T05:08:31.973Z,94.37
2023-03-31T05:09:33.491Z,94.52
2023-03-31T05:10:31.823Z,94.48
2023-03-31T05:11:31.785Z,94.58
2023-03-31T05:12:31.702Z,94.62
2023-03-31T05:13:31.648Z,94.52
2023-03-31T05:14:31.662Z,94.73
2023-03-31T05:15:54.941Z,94.52
2023-03-31T05:16:31.487Z,94.52
2023-03-31T05:17:31.495Z,94.48
2023-03-31T05:18:31.384Z,94.17
2023-03-31T05:19:31.300Z,93.96
2023-03-31T05:20:31.255Z,93.96
2023-03-31T05:21:31.237Z,93.86
2023-03-31T05:22:31.103Z,93.86
2023-03-31T05:23:31.038Z,93.66
2023-03-31T05:24:30.950Z,93.86
2023-03-31T05:25:30.913Z,93.76
2023-03-31T05:26:30.852Z,93.76
2023-03-31T05:27:30.823Z,93.66
2023-03-31T05:28:32.026Z,93.55
2023-03-31T05:29:30.649Z,93.35
2023-03-31T05:30:30.634Z,93.25
2023-03-31T05:31:30.557Z,93.55
2023-03-31T05:32:30.551Z,93.66
2023-03-31T05:33:30.481Z,93.45
2023-03-31T05:34:30.377Z,93.35
2023-03-31T05:35:31.114Z,93.35
2023-03-31T05:36:30.434Z,93.35
2023-03-31T05:37:30.158Z,93.15
2023-03-31T05:38:30.634Z,93.15
2023-03-31T05:39:30.391Z,93.25
2023-03-31T05:40:29.967Z,93.25
2023-03-31T05:41:29.922Z,93.15
2023-03-31T05:42:29.920Z,93.04
2023-03-31T05:43:30.640Z,93.15
2023-03-31T05:44:29.800Z,92.83
2023-03-31T05:45:30.640Z,92.94
2023-03-31T05:46:29.713Z,92.94
2023-03-31T05:47:29.563Z,93.25
2023-03-31T05:48:29.489Z,93.55
2023-03-31T05:49:29.458Z,93.35
2023-03-31T05:50:29.427Z,93.51
2023-03-31T05:51:30.547Z,93.41
2023-03-31T05:52:29.224Z,93.86
2023-03-31T05:53:29.173Z,93.82
2023-03-31T05:54:29.112Z,93.82
2023-03-31T05:55:29.058Z,93.96
2023-03-31T05:56:29.013Z,93.96
2023-03-31T05:57:29.055Z,93.96
2023-03-31T05:58:28.870Z,94.07
2023-03-31T05:59:28.824Z,94.07
2023-03-31T06:00:28.802Z,94.07
2023-03-31T06:01:28.712Z,94.07
2023-03-31T06:02:28.661Z,94.17
2023-03-31T06:03:29.805Z,94.07
2023-03-31T06:04:28.533Z,94.17
2023-03-31T06:05:28.385Z,94.37
2023-03-31T06:06:28.386Z,94.48
2023-03-31T06:07:28.306Z,94.37
2023-03-31T06:08:28.269Z,94.07
2023-03-31T06:11:47.234Z,93.76
2023-03-31T06:12:47.426Z,93.76
2023-03-31T06:13:47.429Z,93.86
2023-03-31T06:14:47.330Z,93.66
2023-03-31T06:15:47.264Z,93.66
2023-03-31T06:16:47.278Z,94.07
2023-03-31T06:17:47.218Z,94.07
2023-03-31T06:18:47.086Z,93.76
2023-03-31T06:19:47.026Z,93.96
2023-03-31T06:20:46.957Z,93.86
2023-03-31T06:21:46.870Z,93.76
2023-03-31T06:22:46.975Z,93.86
2023-03-31T06:23:46.777Z,93.66
2023-03-31T06:24:46.709Z,93.35
2023-03-31T06:25:51.353Z,93.45
2023-03-31T06:26:46.555Z,93.25
2023-03-31T06:27:46.568Z,93.45
2023-03-31T06:31:05.130Z,93.86
2023-03-31T06:32:05.855Z,94.48
2023-03-31T06:33:05.676Z,94.58
2023-03-31T06:34:05.625Z,94.58
2023-03-31T06:35:05.519Z,94.58
2023-03-31T06:36:05.881Z,94.68
2023-03-31T06:37:05.505Z,94.58
2023-03-31T06:38:05.390Z,94.68
2023-03-31T06:39:05.328Z,94.27
2023-03-31T06:40:05.245Z,94.37
2023-03-31T06:41:05.438Z,94.37
2023-03-31T06:44:23.554Z,94.27
2023-03-31T06:45:25.008Z,93.76
2023-03-31T06:46:24.493Z,93.96
2023-03-31T06:47:24.332Z,93.82
2023-03-31T06:48:24.239Z,93.82
2023-03-31T06:49:24.205Z,93.71
2023-03-31T06:50:24.165Z,93.62
2023-03-31T06:51:24.041Z,93.30
2023-03-31T06:52:23.981Z,93.20
2023-03-31T06:53:23.967Z,93.00
2023-03-31T06:54:24.510Z,92.90
2023-03-31T06:55:23.842Z,92.90
2023-03-31T06:56:23.743Z,92.69
2023-03-31T06:57:23.780Z,92.69
2023-03-31T06:58:24.547Z,92.49
2023-03-31T06:59:23.530Z,92.38
2023-03-31T07:00:24.295Z,92.38
2023-03-31T07:01:23.512Z,92.18
2023-03-31T07:02:23.439Z,92.28
2023-03-31T07:03:24.700Z,92.59
2023-03-31T07:04:23.263Z,92.49
2023-03-31T07:05:23.206Z,92.90
2023-03-31T07:06:23.085Z,93.20
2023-03-31T07:09:41.399Z,94.54
2023-03-31T07:10:42.356Z,94.95
2023-03-31T07:11:43.174Z,95.09
2023-03-31T07:12:46.785Z,95.61
2023-03-31T07:13:44.293Z,96.32
2023-03-31T07:14:46.012Z,96.01
2023-03-31T07:15:43.050Z,96.12
2023-03-31T07:16:42.001Z,96.67
2023-03-31T07:17:42.105Z,97.39
2023-03-31T07:18:41.894Z,97.80
2023-03-31T07:19:41.771Z,98.00
2023-03-31T07:20:41.711Z,98.52
2023-03-31T07:21:41.627Z,98.72
2023-03-31T07:22:41.581Z,98.97
2023-03-31T07:23:41.544Z,99.18
2023-03-31T07:24:41.578Z,99.28
2023-03-31T07:25:41.396Z,99.59
2023-03-31T07:28:59.671Z,99.99
2023-03-31T07:30:00.632Z,99.99
2023-03-31T07:31:00.563Z,99.99
2023-03-31T07:32:00.464Z,99.79
2023-03-31T07:33:00.560Z,99.90
2023-03-31T07:34:00.422Z,99.99
2023-03-31T07:35:00.327Z,99.99
2023-03-31T07:36:10.186Z,99.99
2023-03-31T07:37:00.177Z,99.99
2023-03-31T07:38:00.100Z,99.99
2023-03-31T07:39:00.042Z,99.99
2023-03-31T07:40:00.040Z,99.99
2023-03-31T07:41:08.576Z,99.99
2023-03-31T07:41:59.855Z,99.99
2023-03-31T07:42:59.766Z,99.99
2023-03-31T07:43:59.734Z,99.99
2023-03-31T07:44:59.724Z,99.99
2023-03-31T07:45:59.674Z,99.99
2023-03-31T07:46:59.565Z,99.99
2023-03-31T07:47:59.459Z,99.99
2023-03-31T07:48:59.444Z,99.99
2023-03-31T07:49:59.390Z,99.99
2023-03-31T07:50:59.297Z,99.99
2023-03-31T07:51:59.319Z,99.99
2023-03-31T07:52:59.188Z,99.99
2023-03-31T07:53:59.112Z,99.99
2023-03-31T07:54:59.099Z,99.99
2023-03-31T07:55:58.968Z,99.99
2023-03-31T07:56:58.958Z,99.99
2023-03-31T07:57:58.860Z,99.99
2023-03-31T07:58:58.859Z,99.99
2023-03-31T07:59:58.730Z,99.99
2023-03-31T08:00:58.690Z,99.99
2023-03-31T08:01:58.623Z,99.99
2023-03-31T08:02:58.562Z,99.99
2023-03-31T08:03:58.524Z,99.99
2023-03-31T08:04:58.414Z,99.99
2023-03-31T08:05:58.340Z,99.99
2023-03-31T08:06:58.272Z,99.99
2023-03-31T08:07:58.283Z,99.99
2023-03-31T08:08:58.704Z,99.99
2023-03-31T08:09:59.923Z,99.99
2023-03-31T08:11:12.075Z,99.99
2023-03-31T08:11:59.549Z,99.99
2023-03-31T08:12:59.196Z,99.99
2023-03-31T08:14:02.075Z,99.99
2023-03-31T08:15:00.207Z,99.99
2023-03-31T08:18:16.091Z,99.99
2023-03-31T08:19:17.013Z,99.99
2023-03-31T08:20:16.950Z,99.99
2023-03-31T08:21:16.882Z,99.99
2023-03-31T08:22:16.844Z,99.99
2023-03-31T08:23:16.796Z,99.99
2023-03-31T08:24:16.699Z,99.99
2023-03-31T08:25:16.682Z,99.99
2023-03-31T08:26:17.994Z,99.99
2023-03-31T08:27:16.563Z,99.99
2023-03-31T08:28:16.471Z,99.99
2023-03-31T08:29:16.387Z,99.99
2023-03-31T08:30:16.356Z,99.99
2023-03-31T08:31:16.513Z,99.99
2023-03-31T08:32:16.215Z,99.99
2023-03-31T08:33:16.150Z,99.99
2023-03-31T08:34:16.066Z,99.99
2023-03-31T08:35:16.027Z,99.99
2023-03-31T08:36:15.989Z,99.99
2023-03-31T08:37:15.925Z,99.99
2023-03-31T08:38:15.884Z,99.99
2023-03-31T08:39:15.760Z,99.99
2023-03-31T08:40:15.745Z,99.99
2023-03-31T08:41:15.666Z,99.99
2023-03-31T08:42:16.291Z,99.99
2023-03-31T08:43:15.526Z,99.99
2023-03-31T08:44:15.435Z,99.99
2023-03-31T08:45:15.376Z,99.99
2023-03-31T08:46:15.350Z,99.99
2023-03-31T08:47:15.328Z,99.99
2023-03-31T08:48:15.262Z,99.99
2023-03-31T08:49:15.150Z,99.99
2023-03-31T08:50:15.116Z,99.99
2023-03-31T08:51:15.003Z,99.99
2023-03-31T08:52:14.998Z,99.99
2023-03-31T08:53:16.102Z,99.99
2023-03-31T08:54:15.600Z,99.99
2023-03-31T08:55:14.794Z,99.99
2023-03-31T08:56:14.767Z,99.99
2023-03-31T08:57:14.670Z,99.99
2023-03-31T08:58:14.557Z,99.99
2023-03-31T08:59:14.493Z,99.99
2023-03-31T09:00:14.402Z,99.99
2023-03-31T09:01:14.420Z,99.99
2023-03-31T09:02:14.464Z,99.99
2023-03-31T09:03:14.264Z,99.99
2023-03-31T09:04:14.251Z,99.99
2023-03-31T09:05:14.196Z,99.99
2023-03-31T09:06:14.194Z,99.99
2023-03-31T09:07:14.023Z,99.99
2023-03-31T09:08:13.987Z,99.99
2023-03-31T09:09:13.912Z,99.99
2023-03-31T09:10:13.785Z,99.99
2023-03-31T09:11:15.045Z,99.99
2023-03-31T09:12:13.705Z,99.99
2023-03-31T09:13:13.616Z,99.99
2023-03-31T09:14:13.582Z,99.99
2023-03-31T09:15:15.882Z,99.99
2023-03-31T09:16:15.740Z,99.99
2023-03-31T09:17:13.440Z,99.99
2023-03-31T09:18:13.331Z,99.99
2023-03-31T09:19:13.265Z,99.99
2023-03-31T09:20:13.211Z,99.99
2023-03-31T09:21:13.115Z,99.99
2023-03-31T09:22:13.118Z,99.99
2023-03-31T09:23:12.975Z,99.99
2023-03-31T09:24:13.038Z,99.99
2023-03-31T09:25:12.834Z,99.99
2023-03-31T09:26:12.830Z,99.99
2023-03-31T09:27:12.747Z,99.99
2023-03-31T09:28:12.663Z,99.99
2023-03-31T09:29:13.856Z,99.99
2023-03-31T09:30:12.573Z,99.99
2023-03-31T09:31:12.512Z,99.99
2023-03-31T09:32:12.423Z,99.99
2023-03-31T09:33:12.390Z,99.99
2023-03-31T09:34:12.283Z,99.99
2023-03-31T09:35:12.257Z,99.99
2023-03-31T09:36:12.237Z,99.99
2023-03-31T09:37:12.094Z,99.99
2023-03-31T09:38:12.078Z,99.99
2023-03-31T09:39:12.045Z,99.99
2023-03-31T09:40:11.953Z,99.99
2023-03-31T09:41:11.865Z,99.99
2023-03-31T09:42:11.789Z,99.99
2023-03-31T09:43:11.725Z,99.99
2023-03-31T09:44:11.709Z,99.99
2023-03-31T09:45:11.610Z,99.99
2023-03-31T09:46:11.595Z,99.99
2023-03-31T09:49:29.802Z,99.99
2023-03-31T09:50:30.731Z,99.99
2023-03-31T09:51:30.714Z,99.99
2023-03-31T09:52:30.720Z,99.99
2023-03-31T09:53:30.546Z,99.99
2023-03-31T09:54:30.548Z,99.99
2023-03-31T09:55:39.701Z,99.99
2023-03-31T09:56:30.366Z,99.99
2023-03-31T09:57:33.331Z,99.99
2023-03-31T09:58:30.443Z,99.99
2023-03-31T09:59:30.201Z,99.99
2023-03-31T10:00:30.151Z,99.99
2023-03-31T10:01:30.135Z,99.99
2023-03-31T10:02:30.113Z,99.99
2023-03-31T10:03:30.016Z,99.99
2023-03-31T10:04:30.010Z,99.99
2023-03-31T10:05:29.810Z,99.41
2023-03-31T10:06:29.760Z,99.30
2023-03-31T10:07:29.689Z,99.41
2023-03-31T10:08:29.615Z,99.61
2023-03-31T10:09:29.597Z,99.82
2023-03-31T10:10:29.524Z,99.99
2023-03-31T10:11:29.441Z,99.71
2023-03-31T10:12:29.443Z,99.20
2023-03-31T10:13:29.499Z,99.05
2023-03-31T10:14:29.281Z,99.11
2023-03-31T10:15:29.425Z,98.90
2023-03-31T10:16:29.285Z,98.39
2023-03-31T10:17:29.111Z,98.45
2023-03-31T10:18:29.069Z,98.45
2023-03-31T10:19:28.929Z,97.38
2023-03-31T10:20:28.850Z,97.17
2023-03-31T10:21:28.854Z,97.44
2023-03-31T10:22:28.763Z,97.03
2023-03-31T10:23:28.667Z,96.31
2023-03-31T10:24:28.647Z,95.50
2023-03-31T10:25:28.592Z,94.58
2023-03-31T10:26:28.523Z,94.68
2023-03-31T10:27:28.424Z,94.78
2023-03-31T10:28:28.428Z,92.33
2023-03-31T10:29:28.290Z,92.23
2023-03-31T10:30:28.251Z,93.70
2023-03-31T10:31:28.219Z,95.03
2023-03-31T10:32:28.178Z,95.38
2023-03-31T10:33:28.107Z,94.36
2023-03-31T10:34:28.039Z,94.67
2023-03-31T10:35:27.936Z,95.69
2023-03-31T10:36:27.869Z,95.63
2023-03-31T10:37:27.832Z,94.40
2023-03-31T10:38:27.755Z,95.48
2023-03-31T10:39:27.683Z,96.00
2023-03-31T10:40:27.642Z,95.69
2023-03-31T10:41:27.643Z,95.79
2023-03-31T10:42:27.527Z,95.48
2023-03-31T10:43:27.482Z,95.85
2023-03-31T10:44:27.382Z,95.95
2023-03-31T10:45:37.362Z,96.01
2023-03-31T10:46:27.246Z,95.60
2023-03-31T10:47:27.197Z,95.04
2023-03-31T10:48:27.173Z,94.53
2023-03-31T10:49:27.125Z,93.77
2023-03-31T10:50:27.011Z,94.18
2023-03-31T10:51:26.935Z,94.70
2023-03-31T10:52:26.850Z,93.22
2023-03-31T10:53:26.816Z,92.10
2023-03-31T10:54:26.827Z,93.02
2023-03-31T10:55:26.690Z,94.24
2023-03-31T10:56:26.664Z,92.71
2023-03-31T10:57:26.626Z,91.59
2023-03-31T10:58:27.350Z,91.89
2023-03-31T10:59:26.431Z,91.79
2023-03-31T11:00:26.383Z,91.08
2023-03-31T11:01:26.357Z,90.83
2023-03-31T11:02:26.295Z,92.26
2023-03-31T11:03:26.297Z,91.44
2023-03-31T11:04:26.190Z,91.65
2023-03-31T11:05:26.089Z,89.77
2023-03-31T11:06:26.020Z,89.57
2023-03-31T11:07:25.915Z,88.18
2023-03-31T11:08:25.942Z,88.96
2023-03-31T11:09:25.803Z,88.96
2023-03-31T11:10:25.748Z,89.40
2023-03-31T11:11:25.710Z,88.14
2023-03-31T11:12:25.662Z,87.94
2023-03-31T11:13:25.557Z,89.42
2023-03-31T11:14:25.550Z,88.57
2023-03-31T11:15:25.500Z,86.74
2023-03-31T11:16:25.449Z,88.06
2023-03-31T11:17:25.459Z,88.22
2023-03-31T11:18:47.466Z,88.48
2023-03-31T11:19:25.183Z,87.06
2023-03-31T11:20:25.131Z,86.35
2023-03-31T11:21:25.062Z,83.70
2023-03-31T11:22:25.029Z,83.64
2023-03-31T11:23:24.971Z,84.76
2023-03-31T11:24:24.943Z,83.17
2023-03-31T11:25:24.823Z,83.17
2023-03-31T11:26:24.786Z,83.82
2023-03-31T11:27:24.713Z,85.96
2023-03-31T11:28:24.619Z,85.25
2023-03-31T11:29:24.564Z,85.55
2023-03-31T11:30:24.524Z,85.61
2023-03-31T11:31:24.514Z,84.39
2023-03-31T11:32:24.480Z,83.64
2023-03-31T11:33:24.315Z,84.72
2023-03-31T11:34:24.253Z,85.03
2023-03-31T11:35:24.225Z,85.53
2023-03-31T11:36:32.154Z,83.67
2023-03-31T11:37:24.056Z,83.15
2023-03-31T11:38:24.311Z,83.15
2023-03-31T11:39:23.946Z,82.79
2023-03-31T11:40:23.857Z,84.31
2023-03-31T11:41:23.792Z,83.20
2023-03-31T11:42:23.803Z,80.85
2023-03-31T11:43:23.692Z,81.60
2023-03-31T11:44:23.674Z,80.38
2023-03-31T11:45:23.565Z,80.93
2023-03-31T11:46:23.554Z,82.76
2023-03-31T11:47:23.424Z,82.26
2023-03-31T11:48:23.422Z,81.74
2023-03-31T11:49:23.430Z,82.35
2023-03-31T11:50:23.288Z,83.58
2023-03-31T11:51:23.220Z,81.95
2023-03-31T11:52:23.162Z,83.89
2023-03-31T11:53:23.101Z,82.56
2023-03-31T11:54:24.261Z,83.48
2023-03-31T11:55:22.974Z,83.78
2023-03-31T11:56:22.910Z,82.97
2023-03-31T11:57:22.884Z,80.63
2023-03-31T11:58:22.766Z,82.21
2023-03-31T11:59:22.725Z,80.99
2023-03-31T12:00:22.684Z,81.51
2023-03-31T12:01:22.571Z,81.16
2023-03-31T12:02:22.565Z,81.67
2023-03-31T12:03:23.444Z,81.37
2023-03-31T12:04:22.422Z,79.23
2023-03-31T12:05:22.355Z,79.23
2023-03-31T12:06:25.006Z,80.41
2023-03-31T12:07:22.257Z,80.21
2023-03-31T12:08:22.165Z,80.72
2023-03-31T12:09:22.082Z,78.78
2023-03-31T12:10:22.030Z,79.90
2023-03-31T12:11:22.037Z,79.90
2023-03-31T12:12:21.967Z,78.92
2023-03-31T12:13:21.862Z,80.04
2023-03-31T12:14:21.772Z,79.23
2023-03-31T12:15:21.733Z,78.99
2023-03-31T12:16:21.643Z,77.87
2023-03-31T12:17:21.585Z,78.28
2023-03-31T12:18:21.550Z,79.86
2023-03-31T12:19:21.488Z,79.05
2023-03-31T12:20:21.425Z,78.14
2023-03-31T12:21:21.360Z,77.94
2023-03-31T12:22:21.257Z,76.92
2023-03-31T12:23:21.218Z,77.12
2023-03-31T12:24:21.267Z,76.98
2023-03-31T12:25:21.085Z,75.97
2023-03-31T12:26:21.064Z,76.07
2023-03-31T12:27:20.939Z,76.58
2023-03-31T12:28:20.901Z,75.46
2023-03-31T12:29:20.878Z,76.85
2023-03-31T12:30:20.805Z,76.64
2023-03-31T12:31:20.780Z,75.22
2023-03-31T12:32:20.640Z,74.82
2023-03-31T12:33:21.402Z,76.95
2023-03-31T12:34:20.626Z,76.85
2023-03-31T12:35:20.487Z,76.75
2023-03-31T12:36:20.427Z,76.44
2023-03-31T12:37:20.338Z,76.37
2023-03-31T12:38:20.308Z,76.78
2023-03-31T12:39:20.192Z,76.37
2023-03-31T12:40:20.182Z,77.49
2023-03-31T12:41:20.150Z,77.39
2023-03-31T12:42:20.035Z,76.61
2023-03-31T12:43:19.962Z,77.12
2023-03-31T12:44:19.888Z,77.73
2023-03-31T12:45:19.880Z,77.63
2023-03-31T12:46:19.794Z,77.73
2023-03-31T12:47:19.770Z,77.36
2023-03-31T12:48:20.882Z,78.17
2023-03-31T12:49:19.599Z,78.41
2023-03-31T12:50:19.543Z,78.21
2023-03-31T12:51:19.462Z,78.66
2023-03-31T12:52:19.511Z,79.98
2023-03-31T12:53:19.351Z,83.84
2023-03-31T12:54:19.314Z,84.45
2023-03-31T12:55:19.222Z,83.78
2023-03-31T12:56:19.191Z,86.43
2023-03-31T12:57:19.128Z,87.59
2023-03-31T12:58:19.042Z,87.49
2023-03-31T12:59:18.993Z,87.43
2023-03-31T13:00:18.970Z,87.18
2023-03-31T13:01:18.862Z,86.98
2023-03-31T13:02:18.862Z,87.38
2023-03-31T13:03:18.771Z,86.16
2023-03-31T13:04:18.697Z,85.69
2023-03-31T13:05:18.679Z,86.51
2023-03-31T13:06:19.794Z,86.51
2023-03-31T13:07:28.115Z,87.08
2023-03-31T13:08:18.421Z,86.57
2023-03-31T13:09:18.349Z,86.63
2023-03-31T13:10:18.365Z,87.45
2023-03-31T13:11:18.203Z,87.14
2023-03-31T13:12:18.206Z,85.47
2023-03-31T13:13:18.143Z,86.49
2023-03-31T13:14:18.042Z,85.94
2023-03-31T13:15:17.957Z,84.25
2023-03-31T13:16:18.226Z,85.06